Time;durP1;ratioP1;P1;durP2;ratioP2;P2;SDS_P1;SDS_P2;PMS_P1;PMS_P2;Temp;Humidity;BMP_temperature;BMP_pressure;BME280_temperature;BME280_humidity;BME280_pressure;Samples;Min_cycle;Max_cycle;Signal;HPM_P1;HPM_P2
2021/06/17 00:02:13;;;;;;;10.10;3.67;;;;;;;20.14;52.73;100882.56;5073977;28;20044;-69
2021/06/17 00:04:41;;;;;;;5.45;3.38;;;;;;;20.07;53.16;100892.16;5073566;28;20110;-68
2021/06/17 00:07:09;;;;;;;7.63;3.42;;;;;;;19.92;53.80;100889.09;5068470;28;20045;-68
2021/06/17 00:09:36;;;;;;;5.55;3.13;;;;;;;19.97;53.46;100885.00;5056718;28;20067;-68
2021/06/17 00:12:04;;;;;;;8.27;3.28;;;;;;;20.05;53.86;100888.81;5076074;28;20067;-69
2021/06/17 00:14:33;;;;;;;4.30;3.20;;;;;;;19.97;54.19;100890.34;5078986;28;20047;-69
2021/06/17 00:17:01;;;;;;;9.40;4.20;;;;;;;19.89;54.42;100889.38;5075523;28;20064;-69
2021/06/17 00:19:29;;;;;;;7.20;3.67;;;;;;;19.86;54.67;100889.69;5066603;28;20055;-68
2021/06/17 00:21:57;;;;;;;7.38;3.72;;;;;;;19.83;54.86;100895.31;5076571;28;20146;-69
2021/06/17 00:24:25;;;;;;;6.40;4.05;;;;;;;19.82;55.26;100891.81;5062082;28;20057;-69
2021/06/17 00:26:52;;;;;;;10.20;4.13;;;;;;;19.75;55.44;100881.84;5077337;28;20048;-68
2021/06/17 00:29:20;;;;;;;7.85;3.75;;;;;;;19.71;55.62;100890.13;5086180;28;20040;-67
2021/06/17 00:31:48;;;;;;;7.22;3.83;;;;;;;19.67;56.04;100887.88;5074886;28;20048;-68
2021/06/17 00:34:15;;;;;;;6.78;3.58;;;;;;;19.73;55.87;100890.84;5067215;28;20041;-69
2021/06/17 00:36:43;;;;;;;6.57;3.97;;;;;;;19.68;56.14;100889.59;5065014;28;20052;-70
2021/06/17 00:39:11;;;;;;;7.75;3.90;;;;;;;19.73;56.25;100887.31;5075122;28;20070;-69
2021/06/17 00:41:39;;;;;;;4.85;3.63;;;;;;;19.60;56.82;100886.75;5074145;28;20048;-70
2021/06/17 00:44:07;;;;;;;8.60;4.25;;;;;;;19.65;56.78;100890.69;5070222;28;20049;-68
2021/06/17 00:46:35;;;;;;;9.00;4.40;;;;;;;19.59;57.20;100895.75;5059634;28;20048;-68
2021/06/17 00:49:05;;;;;;;8.75;4.45;;;;;;;19.64;57.01;100886.34;5071696;28;20572;-70
2021/06/17 00:51:32;;;;;;;7.18;4.05;;;;;;;19.53;57.54;100885.63;5070425;28;20132;-69
2021/06/17 00:54:00;;;;;;;10.23;4.15;;;;;;;19.60;57.41;100884.94;5067170;28;20060;-68
2021/06/17 00:56:28;;;;;;;5.05;3.95;;;;;;;19.61;57.54;100891.97;5075243;28;20052;-68
2021/06/17 00:58:57;;;;;;;7.43;4.60;;;;;;;19.54;57.90;100893.47;5071787;28;20049;-69
2021/06/17 01:01:25;;;;;;;7.90;4.15;;;;;;;19.48;58.05;100881.53;5044669;28;20059;-68
2021/06/17 01:03:52;;;;;;;8.75;4.57;;;;;;;19.42;58.43;100889.28;5070288;28;20044;-69
2021/06/17 01:06:19;;;;;;;7.28;4.57;;;;;;;19.39;58.60;100876.22;5070302;28;20054;-69
2021/06/17 01:09:07;;;;;;;12.73;5.68;;;;;;;19.33;59.01;100882.13;5074827;28;20063;-67
2021/06/17 01:12:06;;;;;;;9.20;4.75;;;;;;;19.28;59.38;100877.22;5037939;28;20118;-69
2021/06/17 01:14:41;;;;;;;8.63;5.28;;;;;;;19.32;59.03;100873.28;5081387;28;20044;-68
2021/06/17 01:17:13;;;;;;;12.88;4.80;;;;;;;19.26;59.78;100873.81;5062565;28;20109;-69
2021/06/17 01:19:51;;;;;;;11.48;5.70;;;;;;;19.23;60.16;100866.13;5072791;28;20617;-69
2021/06/17 01:22:29;;;;;;;10.25;5.35;;;;;;;19.28;60.13;100871.03;5055113;28;20044;-67
2021/06/17 01:25:10;;;;;;;9.20;6.03;;;;;;;19.31;60.09;100873.41;5066599;28;20126;-67
2021/06/17 01:28:01;;;;;;;10.00;5.22;;;;;;;19.29;60.56;100864.69;5068982;28;20055;-67
2021/06/17 01:30:29;;;;;;;11.57;5.65;;;;;;;19.23;60.75;100869.63;5071620;28;20082;-69
2021/06/17 01:32:59;;;;;;;7.90;4.95;;;;;;;19.27;60.89;100866.66;5052755;28;20056;-68
2021/06/17 01:35:28;;;;;;;10.35;5.20;;;;;;;19.20;61.27;100866.38;5067373;28;20108;-69
2021/06/17 01:37:58;;;;;;;12.65;5.38;;;;;;;19.16;61.82;100856.97;5067111;28;20263;-68
2021/06/17 01:40:27;;;;;;;9.80;5.93;;;;;;;19.17;61.77;100858.66;5086452;28;20052;-68
2021/06/17 01:42:55;;;;;;;7.97;6.38;;;;;;;19.20;62.18;100866.38;5058986;28;20106;-69
2021/06/17 01:45:25;;;;;;;14.20;6.40;;;;;;;19.23;61.97;100861.63;5069832;28;20064;-69
2021/06/17 01:47:53;;;;;;;10.60;5.93;;;;;;;19.20;62.27;100869.06;5087997;28;20044;-68
2021/06/17 01:50:24;;;;;;;8.52;5.57;;;;;;;19.24;62.33;100867.78;5072075;28;20075;-69
2021/06/17 01:52:55;;;;;;;10.43;5.97;;;;;;;19.07;62.86;100866.66;5078095;28;20060;-67
2021/06/17 01:55:28;;;;;;;9.60;5.88;;;;;;;19.11;62.94;100861.88;5069757;28;20055;-70
2021/06/17 01:57:58;;;;;;;8.73;6.25;;;;;;;19.10;63.31;100869.06;5084080;28;20123;-67
2021/06/17 02:00:26;;;;;;;9.70;5.85;;;;;;;19.06;63.69;100862.31;5074445;28;20048;-68
2021/06/17 02:02:53;;;;;;;14.90;5.80;;;;;;;18.97;64.11;100863.16;5069637;28;20052;-69
2021/06/17 02:05:22;;;;;;;13.48;6.35;;;;;;;18.97;64.06;100861.31;5064883;28;20048;-69
2021/06/17 02:07:50;;;;;;;9.88;6.22;;;;;;;19.02;64.10;100854.72;5080507;28;20120;-70
2021/06/17 02:10:19;;;;;;;11.95;6.60;;;;;;;18.92;64.59;100857.38;5076579;28;20046;-70
2021/06/17 02:12:48;;;;;;;7.78;6.10;;;;;;;19.01;64.38;100851.22;5078579;28;20407;-68
2021/06/17 02:15:19;;;;;;;9.70;6.22;;;;;;;18.95;64.55;100849.94;5058450;28;20056;-69
2021/06/17 02:17:47;;;;;;;16.75;6.93;;;;;;;19.02;64.57;100850.22;5067843;28;20048;-69
2021/06/17 02:20:17;;;;;;;10.73;7.18;;;;;;;18.92;64.95;100849.38;5075687;28;20538;-68
2021/06/17 02:22:44;;;;;;;8.77;6.13;;;;;;;18.92;65.16;100847.56;5085393;28;20067;-69
2021/06/17 02:25:20;;;;;;;8.73;6.40;;;;;;;18.92;65.35;100844.88;5080447;28;20386;-69
2021/06/17 02:27:53;;;;;;;11.10;6.80;;;;;;;18.93;65.51;100846.56;5075542;28;20064;-69
2021/06/17 02:30:20;;;;;;;11.30;7.22;;;;;;;18.95;65.47;100838.41;5068533;28;20331;-68
2021/06/17 02:32:49;;;;;;;10.48;6.75;;;;;;;18.83;65.93;100834.22;5083586;28;20063;-68
2021/06/17 02:35:21;;;;;;;15.45;7.50;;;;;;;18.82;66.28;100835.16;5045738;28;20056;-67
2021/06/17 02:37:57;;;;;;;12.80;7.55;;;;;;;18.79;66.21;100830.13;5052783;28;20044;-69
2021/06/17 02:40:26;;;;;;;12.25;7.28;;;;;;;18.82;66.47;100835.16;5073125;28;20516;-70
2021/06/17 02:43:06;;;;;;;11.30;7.63;;;;;;;18.78;66.77;100828.41;5052738;28;20756;-68
2021/06/17 02:45:34;;;;;;;8.77;7.63;;;;;;;18.89;66.39;100831.81;5066215;28;20090;-69
2021/06/17 02:48:02;;;;;;;15.02;7.30;;;;;;;18.85;66.99;100826.91;5053436;28;20154;-68
2021/06/17 02:50:29;;;;;;;12.13;8.13;;;;;;;18.81;67.13;100830.81;5066857;28;20055;-69
2021/06/17 02:52:57;;;;;;;10.88;8.00;;;;;;;18.87;67.31;100830.28;5081603;28;20052;-67
2021/06/17 02:55:25;;;;;;;13.48;7.82;;;;;;;18.89;67.31;100830.97;5085618;28;20051;-69
2021/06/17 02:58:00;;;;;;;10.95;7.97;;;;;;;18.89;67.45;100831.81;5045774;28;20094;-68
2021/06/17 03:00:28;;;;;;;;;;;;;;;18.95;67.27;100827.75;5067123;28;20052;-68
2021/06/17 03:03:03;;;;;;;12.50;7.60;;;;;;;18.89;67.55;100831.81;5067506;28;19920;-68
2021/06/17 03:06:09;;;;;;;10.82;7.72;;;;;;;18.91;67.79;100823.66;5069025;28;20050;-70
2021/06/17 03:08:39;;;;;;;12.27;8.63;;;;;;;18.95;67.63;100819.75;5035889;28;20059;-70
2021/06/17 03:11:11;;;;;;;10.70;8.20;;;;;;;19.05;67.45;100814.41;5069206;28;20502;-70
2021/06/17 03:13:43;;;;;;;13.02;8.77;;;;;;;19.04;67.61;100818.91;5072211;28;20052;-67
2021/06/17 03:16:15;;;;;;;14.52;8.73;;;;;;;19.05;67.82;100815.28;5070734;28;20060;-69
2021/06/17 03:18:43;;;;;;;11.25;8.48;;;;;;;19.12;67.79;100815.53;5073203;28;20059;-69
2021/06/17 03:21:12;;;;;;;11.40;8.75;;;;;;;19.13;67.71;100820.72;5078694;28;20056;-70
2021/06/17 03:23:42;;;;;;;14.23;8.70;;;;;;;19.23;67.33;100818.91;5089804;28;20056;-69
2021/06/17 03:26:11;;;;;;;18.58;8.77;;;;;;;19.34;67.30;100823.25;5067454;28;20565;-69
2021/06/17 03:28:39;;;;;;;12.32;9.23;;;;;;;19.31;67.17;100820.84;5066166;28;20060;-68
2021/06/17 03:31:08;;;;;;;14.35;9.20;;;;;;;19.38;67.31;100821.16;5068209;28;20060;-68
2021/06/17 03:33:38;;;;;;;12.20;8.57;;;;;;;19.41;67.10;100818.19;5081897;28;20061;-69
2021/06/17 03:36:09;;;;;;;13.50;9.02;;;;;;;19.51;66.92;100827.03;5058697;28;20113;-68
2021/06/17 03:38:37;;;;;;;16.23;9.90;;;;;;;19.52;66.78;100823.38;5058018;28;20144;-69
2021/06/17 03:41:05;;;;;;;14.20;9.05;;;;;;;19.57;66.88;100826.44;5064083;28;20044;-68
2021/06/17 03:43:34;;;;;;;15.23;8.93;;;;;;;19.56;66.84;100827.44;5076981;28;20070;-68
2021/06/17 03:46:02;;;;;;;12.05;9.15;;;;;;;19.69;66.44;100824.50;5083930;28;20055;-69
2021/06/17 03:48:30;;;;;;;15.23;9.90;;;;;;;19.67;66.63;100823.78;5053292;28;20032;-69
2021/06/17 03:50:59;;;;;;;14.60;9.45;;;;;;;19.71;66.61;100811.81;5063196;28;20060;-67
2021/06/17 03:53:27;;;;;;;13.85;9.45;;;;;;;19.80;66.19;100818.97;5066642;28;20052;-69
2021/06/17 03:55:55;;;;;;;11.27;9.20;;;;;;;19.81;66.23;100825.97;5074512;28;20048;-69
2021/06/17 03:58:25;;;;;;;12.52;8.98;;;;;;;19.91;66.00;100817.97;5068782;28;20492;-67
2021/06/17 04:00:56;;;;;;;14.10;10.10;;;;;;;19.93;65.63;100818.66;5081026;28;20056;-68
2021/06/17 04:03:25;;;;;;;17.25;9.43;;;;;;;20.00;65.46;100816.25;5075773;28;20060;-69
2021/06/17 04:05:55;;;;;;;10.60;8.02;;;;;;;20.08;65.36;100822.50;5067883;28;20479;-69
2021/06/17 04:08:27;;;;;;;12.18;9.70;;;;;;;20.12;65.14;100823.06;5081779;28;20202;-71
2021/06/17 04:10:57;;;;;;;16.25;9.50;;;;;;;20.30;64.48;100825.78;5075752;28;20135;-68
2021/06/17 04:13:28;;;;;;;14.00;9.85;;;;;;;20.37;64.35;100817.03;5084803;28;20048;-69
2021/06/17 04:15:59;;;;;;;12.70;10.55;;;;;;;20.50;64.12;100823.91;5077444;28;20466;-69
2021/06/17 04:18:27;;;;;;;12.77;9.55;;;;;;;20.70;63.33;100820.09;5075290;28;20532;-69
2021/06/17 04:20:56;;;;;;;14.80;9.77;;;;;;;20.87;63.01;100824.63;5070136;28;20071;-69
2021/06/17 04:23:24;;;;;;;16.25;9.18;;;;;;;21.23;62.04;100822.78;5053176;28;20048;-68
2021/06/17 04:25:53;;;;;;;15.07;9.52;;;;;;;21.90;59.85;100814.25;5045170;28;20083;-68
2021/06/17 04:28:27;;;;;;;15.48;10.13;;;;;;;22.70;56.89;100815.59;5046392;28;20507;-68
2021/06/17 04:30:57;;;;;;;15.02;9.60;;;;;;;23.61;54.44;100820.00;5081027;28;20049;-69
2021/06/17 04:33:25;;;;;;;11.63;9.13;;;;;;;24.65;51.12;100816.31;5068230;28;20058;-69
2021/06/17 04:35:56;;;;;;;13.73;8.93;;;;;;;25.37;49.33;100817.81;5068522;28;20182;-67
2021/06/17 04:38:24;;;;;;;11.30;8.95;;;;;;;25.45;48.58;100817.75;5070777;28;20041;-69
2021/06/17 04:40:52;;;;;;;15.35;9.93;;;;;;;25.89;47.74;100823.25;5062734;28;20064;-68
2021/06/17 04:43:23;;;;;;;11.55;8.65;;;;;;;25.98;46.96;100823.97;5063870;28;20048;-68
2021/06/17 04:45:54;;;;;;;10.90;8.95;;;;;;;25.90;47.23;100821.38;5080230;28;20400;-68
2021/06/17 04:48:23;;;;;;;12.90;9.05;;;;;;;26.44;45.75;100826.47;5071764;28;20508;-68
2021/06/17 04:50:51;;;;;;;13.45;8.85;;;;;;;27.26;44.33;100837.75;5063016;28;20060;-68
2021/06/17 04:53:19;;;;;;;12.20;8.73;;;;;;;27.56;43.05;100834.91;5079756;28;20056;-68
2021/06/17 04:55:54;;;;;;;11.88;8.93;;;;;;;27.46;43.62;100837.09;5053631;28;20050;-68
2021/06/17 04:58:24;;;;;;;12.18;9.15;;;;;;;28.03;42.28;100841.47;5072799;28;20082;-69
2021/06/17 05:00:51;;;;;;;10.27;8.50;;;;;;;28.26;41.56;100831.19;5074056;28;20044;-68
2021/06/17 05:03:20;;;;;;;11.05;8.43;;;;;;;28.97;39.92;100836.25;5075705;28;20048;-69
2021/06/17 05:05:49;;;;;;;10.40;8.32;;;;;;;28.74;40.56;100838.47;5080194;28;20056;-68
2021/06/17 05:10:52;;;;;;;17.05;9.32;;;;;;;29.41;39.16;100840.25;5092912;28;20048;-67
2021/06/17 05:13:22;;;;;;;17.15;9.32;;;;;;;29.39;39.42;100841.50;5080005;28;20534;-67
2021/06/17 05:15:52;;;;;;;10.63;8.18;;;;;;;30.09;37.77;100850.00;5074744;28;20492;-68
2021/06/17 05:18:22;;;;;;;13.75;9.45;;;;;;;30.00;38.24;100844.81;5081737;28;20060;-67
2021/06/17 05:20:51;;;;;;;17.55;9.38;;;;;;;30.73;36.89;100847.28;5076128;28;20511;-67
2021/06/17 05:23:21;;;;;;;12.00;8.70;;;;;;;30.88;36.53;100841.53;5073609;28;20052;-67
2021/06/17 05:25:50;;;;;;;13.70;9.07;;;;;;;31.44;35.86;100843.47;5069280;28;20098;-68
2021/06/17 05:28:21;;;;;;;16.85;9.27;;;;;;;31.34;35.85;100850.44;5085318;28;20048;-66
2021/06/17 05:30:49;;;;;;;10.23;9.18;;;;;;;31.24;35.64;100851.75;5062151;28;20056;-67
2021/06/17 05:33:17;;;;;;;13.30;9.25;;;;;;;31.66;35.15;100862.13;5077704;28;20079;-66
2021/06/17 05:35:46;;;;;;;11.07;9.13;;;;;;;32.29;33.67;100856.44;5074686;28;20051;-67
2021/06/17 05:38:18;;;;;;;14.05;8.68;;;;;;;32.82;33.23;100853.03;5084887;28;20048;-67
2021/06/17 05:40:45;;;;;;;15.07;8.60;;;;;;;32.50;33.46;100849.72;5077342;28;20618;-67
2021/06/17 05:43:13;;;;;;;12.93;8.68;;;;;;;32.96;32.35;100842.78;5081241;28;20049;-67
2021/06/17 05:45:41;;;;;;;13.80;8.77;;;;;;;33.27;31.90;100845.22;5076897;28;20060;-67
2021/06/17 05:48:09;;;;;;;14.32;8.68;;;;;;;33.63;31.47;100854.31;5080103;28;20048;-67
2021/06/17 05:50:36;;;;;;;8.90;8.00;;;;;;;34.84;29.62;100854.44;5079463;28;20060;-66
2021/06/17 05:53:04;;;;;;;14.18;9.10;;;;;;;34.19;30.38;100852.06;5079534;28;20048;-68
2021/06/17 05:55:32;;;;;;;11.05;9.27;;;;;;;34.64;30.05;100851.34;5078533;28;20552;-67
2021/06/17 05:58:00;;;;;;;12.50;10.45;;;;;;;35.18;29.08;100846.31;5075541;28;20048;-69
2021/06/17 06:00:28;;;;;;;11.20;10.00;;;;;;;35.31;28.96;100856.13;5071489;28;20056;-67
2021/06/17 06:02:55;;;;;;;16.00;10.93;;;;;;;34.49;29.89;100854.59;5082918;28;20535;-67
2021/06/17 06:05:23;;;;;;;14.13;9.43;;;;;;;34.75;29.41;100845.81;5076251;28;20048;-69
2021/06/17 06:08:01;;;;;;;14.70;9.75;;;;;;;35.12;29.16;100850.03;5076553;28;20074;-68
2021/06/17 06:10:29;;;;;;;11.82;9.18;;;;;;;34.90;29.54;100853.47;5086123;28;20421;-70
2021/06/17 06:12:56;;;;;;;11.30;9.10;;;;;;;35.21;28.92;100859.50;5062659;28;20532;-68
2021/06/17 06:15:25;;;;;;;15.98;10.00;;;;;;;35.12;29.29;100856.34;5075681;28;20040;-70
2021/06/17 06:17:53;;;;;;;12.85;8.55;;;;;;;34.53;30.25;100861.22;5068834;28;20048;-70
2021/06/17 06:20:20;;;;;;;15.98;9.13;;;;;;;35.33;28.79;100856.69;5076765;28;20052;-70
2021/06/17 06:22:48;;;;;;;8.90;8.07;;;;;;;36.38;27.33;100865.91;5081044;28;20536;-70
2021/06/17 06:25:15;;;;;;;11.25;8.40;;;;;;;36.26;27.49;100855.91;5077617;28;20057;-68
2021/06/17 06:27:42;;;;;;;16.13;9.30;;;;;;;36.53;27.24;100863.38;5093135;28;20036;-68
2021/06/17 06:30:10;;;;;;;12.73;8.98;;;;;;;37.01;26.67;100862.53;5076780;28;20051;-68
2021/06/17 06:32:38;;;;;;;11.57;9.95;;;;;;;36.48;27.19;100869.66;5075914;28;20060;-69
2021/06/17 06:35:09;;;;;;;20.42;10.50;;;;;;;37.36;25.81;100858.44;5053192;28;20051;-68
2021/06/17 06:37:38;;;;;;;10.88;8.07;;;;;;;37.04;26.08;100860.38;5069906;28;20063;-69
2021/06/17 06:40:06;;;;;;;13.90;10.00;;;;;;;36.50;27.05;100861.97;5059913;28;20040;-69
2021/06/17 06:42:35;;;;;;;13.63;9.35;;;;;;;36.65;27.25;100865.97;5079767;28;20058;-69
2021/06/17 06:45:03;;;;;;;15.77;9.77;;;;;;;37.11;26.01;100866.47;5069720;28;20102;-71
2021/06/17 06:47:31;;;;;;;11.30;9.18;;;;;;;37.63;25.82;100860.31;5075359;28;20123;-69
2021/06/17 06:49:58;;;;;;;14.88;9.20;;;;;;;38.03;25.24;100861.66;5072632;28;20403;-70
2021/06/17 06:52:25;;;;;;;13.45;9.07;;;;;;;38.81;23.77;100864.47;5057853;28;20471;-70
2021/06/17 06:54:58;;;;;;;11.98;9.00;;;;;;;38.61;24.53;100863.28;5078494;28;20048;-69
2021/06/17 06:57:29;;;;;;;12.23;8.95;;;;;;;38.42;24.36;100870.41;5092072;28;20052;-71
2021/06/17 06:59:57;;;;;;;12.93;9.77;;;;;;;38.71;24.26;100868.00;5075283;28;20052;-70
2021/06/17 07:02:24;;;;;;;13.70;8.98;;;;;;;38.81;23.79;100876.28;5078237;28;20048;-70
2021/06/17 07:04:52;;;;;;;15.27;9.73;;;;;;;38.80;23.85;100882.06;5075397;28;20044;-69
2021/06/17 07:07:19;;;;;;;10.55;9.35;;;;;;;39.51;23.08;100879.38;5070425;28;20048;-70
2021/06/17 07:09:47;;;;;;;14.00;9.98;;;;;;;38.77;23.76;100888.94;5072969;28;20403;-69
2021/06/17 07:12:14;;;;;;;15.70;9.95;;;;;;;38.69;23.82;100886.72;5081147;28;20402;-69
2021/06/17 07:14:42;;;;;;;12.60;9.50;;;;;;;39.47;22.86;100887.38;5076653;28;20066;-69
2021/06/17 07:17:10;;;;;;;11.80;9.02;;;;;;;40.13;22.33;100877.38;5086073;28;20500;-69
2021/06/17 07:19:38;;;;;;;16.67;9.50;;;;;;;39.57;22.24;100881.03;5069491;28;20130;-69
2021/06/17 07:22:05;;;;;;;12.55;8.85;;;;;;;39.92;22.55;100873.81;5075790;28;20055;-68
2021/06/17 07:24:32;;;;;;;13.95;9.57;;;;;;;39.98;22.27;100875.44;5054860;28;20048;-74
2021/06/17 07:27:02;;;;;;;10.60;9.20;;;;;;;39.57;22.66;100875.50;5066268;28;20135;-74
2021/06/17 07:29:30;;;;;;;12.27;9.30;;;;;;;39.53;22.62;100868.91;5074316;28;20654;-70
2021/06/17 07:31:58;;;;;;;14.15;8.32;;;;;;;40.06;22.15;100868.53;5060980;28;20052;-69
2021/06/17 07:34:25;;;;;;;10.90;8.77;;;;;;;39.98;22.33;100870.75;5067616;28;20053;-69
2021/06/17 07:36:53;;;;;;;14.15;8.80;;;;;;;40.71;21.14;100877.63;5069995;28;20060;-69
2021/06/17 07:39:21;;;;;;;12.27;9.02;;;;;;;41.38;20.19;100873.31;5068154;28;20044;-67
2021/06/17 07:41:49;;;;;;;14.15;9.90;;;;;;;39.99;21.64;100875.19;5074173;28;20059;-69
2021/06/17 07:44:17;;;;;;;11.40;8.85;;;;;;;40.81;21.27;100877.59;5087329;28;20071;-69
2021/06/17 07:46:45;;;;;;;13.07;9.32;;;;;;;41.30;20.57;100884.16;5074599;28;20074;-68
2021/06/17 07:49:12;;;;;;;12.05;9.32;;;;;;;41.88;20.11;100881.41;5073918;28;20055;-69
2021/06/17 07:51:39;;;;;;;11.60;8.75;;;;;;;41.63;20.05;100888.03;5070503;28;20516;-68
2021/06/17 07:54:07;;;;;;;13.55;9.43;;;;;;;41.82;20.08;100882.59;5058853;28;20051;-69
2021/06/17 07:56:34;;;;;;;12.75;10.00;;;;;;;41.07;20.41;100883.78;5069074;28;20056;-69
2021/06/17 07:59:02;;;;;;;11.68;9.23;;;;;;;41.43;19.91;100883.50;5072177;28;20051;-67
2021/06/17 08:01:29;;;;;;;10.05;8.90;;;;;;;42.01;19.59;100883.47;5080901;28;20048;-69
2021/06/17 08:03:57;;;;;;;12.70;9.02;;;;;;;40.91;20.71;100887.75;5083704;28;20047;-70
2021/06/17 08:06:25;;;;;;;14.63;8.15;;;;;;;41.59;20.08;100885.00;5072844;28;20048;-69
2021/06/17 08:08:52;;;;;;;10.45;8.75;;;;;;;41.53;19.88;100888.13;5082403;28;20045;-68
2021/06/17 08:11:19;;;;;;;11.68;8.93;;;;;;;42.38;18.85;100876.41;5074613;28;20055;-68
2021/06/17 08:13:55;;;;;;;10.40;9.32;;;;;;;42.45;18.73;100872.16;5086920;28;20048;-71
2021/06/17 08:16:22;;;;;;;10.05;8.18;;;;;;;42.46;18.82;100876.56;5065866;28;20056;-69
2021/06/17 08:18:53;;;;;;;11.90;9.07;;;;;;;42.04;19.16;100874.59;5068780;28;20059;-69
2021/06/17 08:21:22;;;;;;;10.82;9.82;;;;;;;42.04;18.94;100877.34;5058714;28;20040;-70
2021/06/17 08:23:49;;;;;;;9.48;8.20;;;;;;;42.17;18.78;100873.88;5061984;28;20117;-69
2021/06/17 08:26:18;;;;;;;9.05;8.18;;;;;;;42.89;18.45;100881.25;5072979;28;20053;-69
2021/06/17 08:28:45;;;;;;;10.20;8.23;;;;;;;41.85;19.26;100880.06;5055385;28;20432;-68
2021/06/17 08:31:12;;;;;;;18.25;9.50;;;;;;;40.25;20.52;100875.91;5060848;28;20052;-68
2021/06/17 08:33:40;;;;;;;12.70;8.65;;;;;;;38.83;22.12;100878.78;5086271;28;20052;-69
2021/06/17 08:36:08;;;;;;;13.55;7.75;;;;;;;37.55;24.01;100869.84;5084228;28;20117;-69
2021/06/17 08:38:36;;;;;;;14.57;7.25;;;;;;;36.81;25.19;100877.94;5062644;28;20094;-69
2021/06/17 08:41:05;;;;;;;12.35;7.78;;;;;;;35.44;26.77;100873.03;5083017;28;20042;-69
2021/06/17 08:43:50;;;;;;;15.57;7.55;;;;;;;35.14;27.17;100883.47;5096363;28;20054;-70
2021/06/17 08:46:18;;;;;;;9.68;7.00;;;;;;;34.32;28.03;100883.75;5052692;28;20456;-68
2021/06/17 08:48:48;;;;;;;18.70;7.20;;;;;;;34.40;28.13;100875.97;5067360;28;20052;-69
2021/06/17 08:51:17;;;;;;;9.15;6.82;;;;;;;34.70;27.22;100874.97;5042790;28;20033;-70
2021/06/17 08:53:48;;;;;;;11.48;6.65;;;;;;;34.30;27.62;100885.88;5076481;28;20074;-69
2021/06/17 08:56:15;;;;;;;11.02;6.95;;;;;;;33.88;28.29;100875.09;5067028;28;20080;-68
2021/06/17 08:58:45;;;;;;;11.63;6.80;;;;;;;33.10;29.51;100877.00;5080912;28;20067;-68
2021/06/17 09:01:14;;;;;;;10.57;6.38;;;;;;;33.33;29.13;100878.97;5070405;28;20382;-68
2021/06/17 09:03:43;;;;;;;12.95;6.57;;;;;;;33.57;28.86;100877.13;5075529;28;20052;-69
2021/06/17 09:06:11;;;;;;;9.15;6.85;;;;;;;33.40;29.18;100871.47;5066678;28;20090;-68
2021/06/17 09:08:39;;;;;;;11.18;6.88;;;;;;;33.46;29.18;100875.22;5071278;28;20048;-69
2021/06/17 09:11:24;;;;;;;12.35;6.75;;;;;;;33.03;29.30;100879.00;5072402;28;20078;-68
2021/06/17 09:13:52;;;;;;;8.77;6.63;;;;;;;33.09;28.63;100869.88;5067276;28;20508;-70
2021/06/17 09:16:26;;;;;;;11.93;6.78;;;;;;;32.85;30.02;100870.84;5083513;28;20052;-68
2021/06/17 09:18:54;;;;;;;;;;;;;;;32.97;29.30;100877.22;5074559;28;20062;-67
2021/06/17 09:21:21;;;;;;;9.55;6.25;;;;;;;32.75;29.52;100883.13;5082950;28;19972;-69
2021/06/17 09:23:49;;;;;;;9.70;6.60;;;;;;;32.97;29.32;100874.47;5060532;28;20049;-68
2021/06/17 09:26:22;;;;;;;11.43;5.57;;;;;;;33.08;28.45;100870.94;5080295;28;20125;-69
2021/06/17 09:31:33;;;;;;;7.95;5.80;;;;;;;33.13;29.07;100862.88;5078784;28;20380;-69
2021/06/17 09:34:02;;;;;;;13.07;6.43;;;;;;;33.03;29.41;100859.91;5078870;28;20059;-67
2021/06/17 09:36:32;;;;;;;7.13;5.97;;;;;;;33.44;28.70;100863.69;5071334;28;20060;-68
2021/06/17 09:39:14;;;;;;;8.35;6.13;;;;;;;33.12;28.50;100868.59;5085956;28;20055;-68
2021/06/17 09:41:47;;;;;;;8.95;6.22;;;;;;;33.14;29.39;100863.72;5079896;28;20078;-67
2021/06/17 09:44:41;;;;;;;8.68;6.13;;;;;;;33.05;28.59;100873.28;5075376;28;20373;-69
2021/06/17 09:47:21;;;;;;;7.68;5.82;;;;;;;33.14;28.60;100860.97;5075313;28;20055;-72
2021/06/17 09:49:51;;;;;;;8.85;5.47;;;;;;;32.72;29.30;100874.56;5073954;28;20432;-69
2021/06/17 09:52:19;;;;;;;10.75;5.78;;;;;;;32.72;28.69;100863.66;5083115;28;20078;-69
2021/06/17 09:54:49;;;;;;;10.23;5.57;;;;;;;32.91;28.82;100859.03;5083859;28;20056;-68
2021/06/17 09:57:20;;;;;;;7.93;5.22;;;;;;;33.21;28.11;100859.81;5063230;28;20079;-68
2021/06/17 09:59:50;;;;;;;10.23;5.50;;;;;;;33.23;28.00;100846.78;5076143;28;20507;-68
2021/06/17 10:02:23;;;;;;;7.05;5.10;;;;;;;33.18;28.14;100852.09;5058998;28;20063;-70
2021/06/17 10:04:51;;;;;;;9.40;6.18;;;;;;;33.24;28.06;100845.72;5074288;28;20109;-68
2021/06/17 10:07:19;;;;;;;14.25;6.15;;;;;;;33.21;27.99;100843.44;5085105;28;20291;-69
2021/06/17 10:09:48;;;;;;;6.10;5.15;;;;;;;33.35;27.07;100846.78;5077955;28;20056;-69
2021/06/17 10:12:18;;;;;;;7.95;5.20;;;;;;;33.29;27.44;100844.19;5077440;28;20052;-69
2021/06/17 10:14:46;;;;;;;8.05;4.95;;;;;;;33.33;27.46;100843.47;5068149;28;20062;-68
2021/06/17 10:17:15;;;;;;;8.25;4.93;;;;;;;33.29;27.50;100836.00;5071499;28;20409;-68
2021/06/17 10:19:43;;;;;;;7.57;4.95;;;;;;;33.32;26.78;100836.34;5087661;28;20074;-69
2021/06/17 10:22:10;;;;;;;11.48;5.13;;;;;;;33.42;27.00;100830.31;5065319;28;20048;-69
2021/06/17 10:24:39;;;;;;;5.97;4.85;;;;;;;33.48;26.86;100835.69;5051166;28;20056;-69
2021/06/17 10:27:09;;;;;;;8.65;4.35;;;;;;;33.47;26.15;100833.19;5073128;28;20524;-69
2021/06/17 10:29:44;;;;;;;10.60;5.45;;;;;;;33.30;27.05;100832.19;5094987;28;20063;-69
2021/06/17 10:32:16;;;;;;;6.55;4.55;;;;;;;33.11;26.51;100836.91;5072060;28;20060;-68
2021/06/17 10:34:53;;;;;;;6.25;5.45;;;;;;;32.96;27.24;100829.16;5087871;28;20051;-69
2021/06/17 10:37:31;;;;;;;9.10;5.72;;;;;;;33.27;27.32;100825.31;5069965;28;20090;-69
2021/06/17 10:40:10;;;;;;;7.25;4.88;;;;;;;33.04;27.08;100828.81;5080097;28;20516;-69
2021/06/17 10:42:48;;;;;;;7.82;4.55;;;;;;;33.09;26.79;100839.88;5077187;28;20044;-69
2021/06/17 10:45:33;;;;;;;6.05;5.07;;;;;;;32.73;26.71;100825.25;5085689;28;20050;-68
2021/06/17 10:48:16;;;;;;;8.68;4.72;;;;;;;32.55;26.90;100830.75;5083004;28;20303;-69
2021/06/17 10:50:47;;;;;;;11.30;4.82;;;;;;;32.45;26.89;100825.03;5070822;28;20048;-69
2021/06/17 10:53:24;;;;;;;7.03;4.15;;;;;;;32.50;26.60;100812.38;5054615;28;20069;-68
2021/06/17 10:56:03;;;;;;;9.82;4.85;;;;;;;32.35;27.10;100811.09;5075521;28;20268;-69
2021/06/17 10:58:43;;;;;;;8.45;5.10;;;;;;;32.63;27.28;100810.53;5080179;28;20048;-69
2021/06/17 11:01:33;;;;;;;13.10;4.32;;;;;;;33.06;26.99;100809.53;5070924;28;20122;-69
2021/06/17 11:04:07;;;;;;;6.03;4.63;;;;;;;32.97;26.42;100812.59;5077740;28;20066;-69
2021/06/17 11:06:54;;;;;;;5.15;4.32;;;;;;;33.50;26.21;100808.13;5076168;28;20042;-69
2021/06/17 11:09:45;;;;;;;5.78;4.78;;;;;;;33.62;26.02;100816.34;5081727;28;20063;-69
2021/06/17 11:12:13;;;;;;;5.78;4.50;;;;;;;32.93;26.51;100805.94;5073323;28;20047;-70
2021/06/17 11:14:42;;;;;;;8.90;4.72;;;;;;;32.65;26.81;100813.88;5073410;28;20052;-69
2021/06/17 11:17:34;;;;;;;6.60;4.45;;;;;;;32.58;26.44;100811.22;5068118;28;20071;-68
2021/06/17 11:20:04;;;;;;;5.78;4.47;;;;;;;32.60;26.36;100803.66;5079236;28;20048;-69
2021/06/17 11:22:46;;;;;;;9.52;4.28;;;;;;;32.74;26.13;100813.31;5082131;28;20442;-69
2021/06/17 11:25:16;;;;;;;7.97;4.85;;;;;;;32.54;26.38;100820.94;5076825;28;20055;-67
2021/06/17 11:28:03;;;;;;;8.23;4.45;;;;;;;32.38;26.53;100822.41;5084811;28;20047;-68
2021/06/17 11:30:37;;;;;;;5.25;4.15;;;;;;;32.63;26.35;100814.09;5082554;28;20044;-70
2021/06/17 11:33:17;;;;;;;4.77;4.13;;;;;;;32.71;26.31;100802.88;5075894;28;20045;-69
2021/06/17 11:35:48;;;;;;;9.75;4.70;;;;;;;33.02;26.29;100798.25;5080442;28;20420;-70
2021/06/17 11:38:23;;;;;;;8.85;4.88;;;;;;;33.34;25.58;100796.03;5055818;28;20166;-70
2021/06/17 11:40:50;;;;;;;5.60;4.65;;;;;;;33.65;25.49;100808.50;5082293;28;20895;-69